Terminal Aerodrome Forecast
Issued by NWS

Home | Current Version | Previous Version | Text Only | Print | Product List | Glossary On
Versions: 1 2 3 4 5 6 7 8 9 10 11 12 13 14 15 16 17 18 19 20 21
000
FTUS44 KBMX 172344
TAFMGM
TAF
KMGM 172344Z 1800/1824 13005KT P6SM SCT040 BKN150
     FM180500 20003KT 5SM BR OVC015
     FM180900 25002KT 3SM BR OVC004
     FM181700 28004KT P6SM OVC015=

USA.gov is the U.S. government's official web portal to all federal, state and local government web resources and services.